PTSHY SBJV-SBPF
Flight info
| Callsign | PTSHY |
|---|---|
| Flight time | 1h 15m |
| Altitude | 6000 |
| Route | ANKAG DCT CLUNG |
| Aircraft | E110/L-SDG/C |
Departure
| Time | 2026-04-26 19:26 |
|---|---|
| Airport | Lauro Carneiro de Loyola Airport (SBJV) |
Arrival
| Time | 2026-04-26 20:41 |
|---|---|
| Airport | Lauro Kurtz Airport (SBPF) |
| Time | Latitude | Longitude | Altitude | Speed | Heading |
|---|---|---|---|---|---|
| 2026-04-26 19:12 | -26.22369 | -48.80094 | 21 ft | 0 kts | 38° |
| 2026-04-26 19:21 | -26.22368 | -48.80093 | 21 ft | 0 kts | 40° |
| 2026-04-26 19:21 | -26.22366 | -48.80092 | 21 ft | 0 kts | 44° |
| 2026-04-26 19:21 | -26.22358 | -48.80082 | 21 ft | 3 kts | 53° |
| 2026-04-26 19:21 | -26.22345 | -48.80057 | 21 ft | 1 kts | 66° |
| 2026-04-26 19:22 | -26.22339 | -48.80040 | 21 ft | 3 kts | 68° |
| 2026-04-26 19:22 | -26.22322 | -48.80009 | 21 ft | 4 kts | 42° |
| 2026-04-26 19:22 | -26.22315 | -48.80003 | 21 ft | 0 kts | 49° |
| 2026-04-26 19:22 | -26.22312 | -48.79999 | 21 ft | 1 kts | 47° |
| 2026-04-26 19:23 | -26.22278 | -48.79997 | 21 ft | 9 kts | 321° |
| 2026-04-26 19:23 | -26.22237 | -48.80046 | 21 ft | 10 kts | 307° |
| 2026-04-26 19:23 | -26.22164 | -48.80146 | 21 ft | 17 kts | 308° |
| 2026-04-26 19:23 | -26.22091 | -48.80260 | 21 ft | 18 kts | 304° |
| 2026-04-26 19:24 | -26.22036 | -48.80341 | 22 ft | 10 kts | 298° |
| 2026-04-26 19:24 | -26.22018 | -48.80340 | 22 ft | 7 kts | 123° |
| 2026-04-26 19:24 | -26.22049 | -48.80289 | 21 ft | 0 kts | 129° |
| 2026-04-26 19:25 | -26.22104 | -48.80210 | 21 ft | 49 kts | 128° |
| 2026-04-26 19:25 | -26.22192 | -48.80088 | 21 ft | 72 kts | 128° |
| 2026-04-26 19:25 | -26.22908 | -48.79030 | 192 ft | 115 kts | 124° |
| 2026-04-26 19:25 | -26.23306 | -48.78229 | 447 ft | 121 kts | 108° |
| 2026-04-26 19:26 | -26.23323 | -48.77236 | 609 ft | 136 kts | 73° |
| 2026-04-26 19:26 | -26.22762 | -48.76368 | 799 ft | 146 kts | 39° |
| 2026-04-26 19:26 | -26.21786 | -48.76067 | 983 ft | 150 kts | 352° |
| 2026-04-26 19:26 | -26.20888 | -48.76629 | 1219 ft | 150 kts | 307° |
| 2026-04-26 19:27 | -26.20613 | -48.77720 | 1389 ft | 156 kts | 264° |
| 2026-04-26 19:27 | -26.21140 | -48.78795 | 1524 ft | 164 kts | 224° |
| 2026-04-26 19:27 | -26.21988 | -48.79646 | 1691 ft | 166 kts | 227° |
| 2026-04-26 19:27 | -26.22785 | -48.80596 | 1871 ft | 166 kts | 232° |
| 2026-04-26 19:28 | -26.23535 | -48.81587 | 2058 ft | 166 kts | 233° |
| 2026-04-26 19:28 | -26.24259 | -48.82587 | 2238 ft | 166 kts | 234° |
| 2026-04-26 19:28 | -26.24972 | -48.83595 | 2427 ft | 165 kts | 235° |
| 2026-04-26 19:28 | -26.25680 | -48.84606 | 2616 ft | 164 kts | 236° |
| 2026-04-26 19:29 | -26.26385 | -48.85618 | 2802 ft | 163 kts | 236° |
| 2026-04-26 19:29 | -26.27079 | -48.86617 | 2984 ft | 163 kts | 236° |
| 2026-04-26 19:29 | -26.27775 | -48.87620 | 3163 ft | 162 kts | 237° |
| 2026-04-26 19:29 | -26.28468 | -48.88620 | 3342 ft | 161 kts | 237° |
| 2026-04-26 19:30 | -26.29153 | -48.89608 | 3514 ft | 160 kts | 237° |
| 2026-04-26 19:30 | -26.29826 | -48.90580 | 3676 ft | 159 kts | 237° |
| 2026-04-26 19:30 | -26.30503 | -48.91558 | 3833 ft | 159 kts | 237° |
| 2026-04-26 19:30 | -26.30732 | -48.91888 | 3887 ft | 159 kts | 237° |
| 2026-04-26 19:31 | -26.31856 | -48.93510 | 4152 ft | 159 kts | 238° |
| 2026-04-26 19:31 | -26.32537 | -48.94494 | 4321 ft | 161 kts | 238° |
| 2026-04-26 19:31 | -26.33220 | -48.95481 | 4512 ft | 161 kts | 238° |
| 2026-04-26 19:31 | -26.33912 | -48.96481 | 4701 ft | 161 kts | 238° |
| 2026-04-26 19:32 | -26.34591 | -48.97461 | 4892 ft | 160 kts | 238° |
| 2026-04-26 19:32 | -26.35265 | -48.98436 | 5078 ft | 159 kts | 238° |
| 2026-04-26 19:32 | -26.35723 | -48.99097 | 5203 ft | 158 kts | 238° |
| 2026-04-26 19:32 | -26.36596 | -49.00358 | 5445 ft | 157 kts | 239° |
| 2026-04-26 19:33 | -26.37256 | -49.01311 | 5629 ft | 156 kts | 239° |
| 2026-04-26 19:33 | -26.37916 | -49.02266 | 5812 ft | 155 kts | 239° |
| 2026-04-26 19:33 | -26.38576 | -49.03222 | 5979 ft | 155 kts | 239° |
| 2026-04-26 19:33 | -26.39252 | -49.04204 | 5981 ft | 164 kts | 239° |
| 2026-04-26 19:34 | -26.39967 | -49.05241 | 5937 ft | 173 kts | 239° |
| 2026-04-26 19:34 | -26.40720 | -49.06330 | 5941 ft | 176 kts | 239° |
| 2026-04-26 19:34 | -26.41476 | -49.07424 | 5952 ft | 178 kts | 238° |
| 2026-04-26 19:34 | -26.42243 | -49.08535 | 5951 ft | 180 kts | 238° |
| 2026-04-26 19:35 | -26.43003 | -49.09636 | 5952 ft | 181 kts | 238° |
| 2026-04-26 19:35 | -26.43790 | -49.10777 | 5952 ft | 183 kts | 238° |
| 2026-04-26 19:35 | -26.44560 | -49.11894 | 5957 ft | 183 kts | 238° |
| 2026-04-26 19:35 | -26.45347 | -49.13035 | 5959 ft | 184 kts | 238° |
| 2026-04-26 19:36 | -26.46131 | -49.14172 | 5955 ft | 185 kts | 238° |
| 2026-04-26 19:36 | -26.46392 | -49.14551 | 5954 ft | 185 kts | 238° |
| 2026-04-26 19:36 | -26.47702 | -49.16451 | 5940 ft | 185 kts | 238° |
| 2026-04-26 19:36 | -26.48491 | -49.17595 | 5944 ft | 185 kts | 238° |
| 2026-04-26 19:37 | -26.49281 | -49.18744 | 5946 ft | 185 kts | 238° |
| 2026-04-26 19:37 | -26.50064 | -49.19881 | 5942 ft | 185 kts | 238° |
| 2026-04-26 19:37 | -26.50851 | -49.21024 | 5941 ft | 184 kts | 237° |
| 2026-04-26 19:37 | -26.51625 | -49.22149 | 5943 ft | 184 kts | 237° |
| 2026-04-26 19:38 | -26.52426 | -49.23311 | 5942 ft | 185 kts | 237° |
| 2026-04-26 19:38 | -26.53210 | -49.24446 | 5939 ft | 185 kts | 238° |
| 2026-04-26 19:38 | -26.54000 | -49.25593 | 5942 ft | 185 kts | 237° |
| 2026-04-26 19:38 | -26.54759 | -49.26695 | 5947 ft | 184 kts | 237° |
| 2026-04-26 19:39 | -26.55520 | -49.27803 | 5947 ft | 184 kts | 238° |
| 2026-04-26 19:39 | -26.56315 | -49.28959 | 5950 ft | 184 kts | 237° |
| 2026-04-26 19:39 | -26.57100 | -49.30100 | 5956 ft | 184 kts | 238° |
| 2026-04-26 19:39 | -26.57885 | -49.31244 | 5954 ft | 185 kts | 237° |
| 2026-04-26 19:40 | -26.58672 | -49.32390 | 5957 ft | 185 kts | 238° |
| 2026-04-26 19:40 | -26.59464 | -49.33543 | 5955 ft | 185 kts | 237° |
| 2026-04-26 19:40 | -26.60251 | -49.34690 | 5961 ft | 185 kts | 238° |
| 2026-04-26 19:40 | -26.60750 | -49.35417 | 5962 ft | 186 kts | 237° |
| 2026-04-26 19:41 | -26.61810 | -49.36963 | 5962 ft | 186 kts | 237° |
| 2026-04-26 19:41 | -26.62604 | -49.38121 | 5966 ft | 185 kts | 237° |
| 2026-04-26 19:41 | -26.63394 | -49.39274 | 5970 ft | 185 kts | 237° |
| 2026-04-26 19:41 | -26.63655 | -49.39654 | 5970 ft | 185 kts | 237° |
| 2026-04-26 19:42 | -26.64964 | -49.41564 | 5970 ft | 185 kts | 237° |
| 2026-04-26 19:42 | -26.65754 | -49.42717 | 5977 ft | 185 kts | 237° |
| 2026-04-26 19:42 | -26.66550 | -49.43879 | 5980 ft | 185 kts | 237° |
| 2026-04-26 19:42 | -26.67339 | -49.45032 | 5969 ft | 186 kts | 237° |
| 2026-04-26 19:43 | -26.68126 | -49.46183 | 5962 ft | 186 kts | 237° |
| 2026-04-26 19:43 | -26.68914 | -49.47332 | 5961 ft | 186 kts | 237° |
| 2026-04-26 19:43 | -26.69710 | -49.48496 | 5969 ft | 185 kts | 237° |
| 2026-04-26 19:43 | -26.70497 | -49.49646 | 5976 ft | 185 kts | 237° |
| 2026-04-26 19:44 | -26.71244 | -49.50739 | 5981 ft | 185 kts | 237° |
| 2026-04-26 19:44 | -26.72027 | -49.51885 | 5981 ft | 185 kts | 237° |
| 2026-04-26 19:44 | -26.72822 | -49.53049 | 5977 ft | 186 kts | 237° |
| 2026-04-26 19:44 | -26.73609 | -49.54200 | 5977 ft | 186 kts | 237° |
| 2026-04-26 19:45 | -26.74402 | -49.55361 | 5974 ft | 186 kts | 237° |
| 2026-04-26 19:45 | -26.75187 | -49.56512 | 5959 ft | 186 kts | 236° |
| 2026-04-26 19:45 | -26.75980 | -49.57673 | 5953 ft | 186 kts | 237° |
| 2026-04-26 19:45 | -26.76771 | -49.58831 | 5955 ft | 186 kts | 237° |
| 2026-04-26 19:46 | -26.77568 | -49.59998 | 5958 ft | 186 kts | 236° |
| 2026-04-26 19:46 | -26.78332 | -49.61118 | 5945 ft | 186 kts | 237° |
| 2026-04-26 19:46 | -26.79122 | -49.62276 | 5947 ft | 186 kts | 237° |
| 2026-04-26 19:46 | -26.79910 | -49.63432 | 5943 ft | 186 kts | 236° |
| 2026-04-26 19:47 | -26.80701 | -49.64593 | 5945 ft | 186 kts | 236° |
| 2026-04-26 19:47 | -26.80960 | -49.64973 | 5944 ft | 186 kts | 236° |
| 2026-04-26 19:47 | -26.82296 | -49.66932 | 5948 ft | 187 kts | 237° |
| 2026-04-26 19:47 | -26.83057 | -49.68051 | 5946 ft | 187 kts | 237° |
| 2026-04-26 19:48 | -26.83848 | -49.69212 | 5946 ft | 187 kts | 237° |
| 2026-04-26 19:48 | -26.84642 | -49.70379 | 5941 ft | 187 kts | 236° |
| 2026-04-26 19:48 | -26.85434 | -49.71543 | 5936 ft | 187 kts | 236° |
| 2026-04-26 19:48 | -26.86235 | -49.72719 | 5939 ft | 187 kts | 237° |
| 2026-04-26 19:49 | -26.87019 | -49.73872 | 5940 ft | 188 kts | 236° |
| 2026-04-26 19:49 | -26.87819 | -49.75048 | 5938 ft | 188 kts | 237° |
| 2026-04-26 19:49 | -26.88616 | -49.76220 | 5939 ft | 188 kts | 237° |
| 2026-04-26 19:49 | -26.89405 | -49.77380 | 5946 ft | 187 kts | 236° |
| 2026-04-26 19:50 | -26.90208 | -49.78563 | 5950 ft | 187 kts | 237° |
| 2026-04-26 19:50 | -26.90991 | -49.79714 | 5956 ft | 187 kts | 236° |
| 2026-04-26 19:50 | -26.91781 | -49.80877 | 5961 ft | 187 kts | 237° |
| 2026-04-26 19:50 | -26.92572 | -49.82044 | 5961 ft | 187 kts | 236° |
| 2026-04-26 19:51 | -26.93365 | -49.83211 | 5958 ft | 188 kts | 236° |
| 2026-04-26 19:51 | -26.94159 | -49.84382 | 5956 ft | 188 kts | 236° |
| 2026-04-26 19:51 | -26.94951 | -49.85548 | 5962 ft | 188 kts | 237° |
| 2026-04-26 19:51 | -26.95801 | -49.86680 | 5963 ft | 189 kts | 229° |
| 2026-04-26 19:52 | -26.96748 | -49.87705 | 5961 ft | 190 kts | 229° |
| 2026-04-26 19:52 | -26.97699 | -49.88730 | 5953 ft | 190 kts | 228° |
| 2026-04-26 19:52 | -26.98664 | -49.89768 | 5955 ft | 190 kts | 228° |
| 2026-04-26 19:52 | -26.99622 | -49.90797 | 5954 ft | 190 kts | 228° |
| 2026-04-26 19:53 | -27.00577 | -49.91824 | 5951 ft | 190 kts | 228° |
| 2026-04-26 19:53 | -27.01535 | -49.92853 | 5949 ft | 190 kts | 228° |
| 2026-04-26 19:53 | -27.02503 | -49.93893 | 5951 ft | 190 kts | 228° |
| 2026-04-26 19:53 | -27.03467 | -49.94929 | 5949 ft | 191 kts | 228° |
| 2026-04-26 19:54 | -27.04433 | -49.95968 | 5948 ft | 191 kts | 228° |
| 2026-04-26 19:54 | -27.05391 | -49.96999 | 5946 ft | 191 kts | 228° |
| 2026-04-26 19:54 | -27.06351 | -49.98031 | 5952 ft | 191 kts | 228° |
| 2026-04-26 19:54 | -27.07311 | -49.99065 | 5961 ft | 190 kts | 228° |
| 2026-04-26 19:55 | -27.08277 | -50.00104 | 5959 ft | 191 kts | 227° |
| 2026-04-26 19:55 | -27.09239 | -50.01140 | 5960 ft | 191 kts | 227° |
| 2026-04-26 19:55 | -27.10196 | -50.02170 | 5960 ft | 191 kts | 227° |
| 2026-04-26 19:55 | -27.11119 | -50.03164 | 5960 ft | 191 kts | 227° |
| 2026-04-26 19:56 | -27.12091 | -50.04211 | 5955 ft | 191 kts | 228° |
| 2026-04-26 19:56 | -27.13057 | -50.05252 | 5954 ft | 191 kts | 227° |
| 2026-04-26 19:56 | -27.14019 | -50.06289 | 5956 ft | 191 kts | 227° |
| 2026-04-26 19:56 | -27.14983 | -50.07327 | 5960 ft | 191 kts | 227° |
| 2026-04-26 19:57 | -27.15951 | -50.08371 | 5971 ft | 190 kts | 228° |
| 2026-04-26 19:57 | -27.16897 | -50.09392 | 5977 ft | 190 kts | 228° |
| 2026-04-26 19:57 | -27.17862 | -50.10434 | 5973 ft | 191 kts | 227° |
| 2026-04-26 19:57 | -27.18831 | -50.11479 | 5977 ft | 191 kts | 228° |
| 2026-04-26 19:58 | -27.19788 | -50.12511 | 5978 ft | 191 kts | 228° |
| 2026-04-26 19:58 | -27.20755 | -50.13556 | 5977 ft | 191 kts | 228° |
| 2026-04-26 19:58 | -27.21723 | -50.14601 | 5979 ft | 191 kts | 227° |
| 2026-04-26 19:58 | -27.22688 | -50.15644 | 5983 ft | 191 kts | 227° |
| 2026-04-26 19:59 | -27.23654 | -50.16688 | 5993 ft | 191 kts | 227° |
| 2026-04-26 19:59 | -27.24608 | -50.17719 | 6000 ft | 191 kts | 227° |
| 2026-04-26 19:59 | -27.25573 | -50.18761 | 5984 ft | 191 kts | 227° |
| 2026-04-26 19:59 | -27.26543 | -50.19812 | 5996 ft | 191 kts | 227° |
| 2026-04-26 20:00 | -27.27501 | -50.20848 | 6013 ft | 191 kts | 227° |
| 2026-04-26 20:00 | -27.28458 | -50.21881 | 6014 ft | 192 kts | 228° |
| 2026-04-26 20:00 | -27.29420 | -50.22923 | 5994 ft | 192 kts | 228° |
| 2026-04-26 20:00 | -27.30395 | -50.23978 | 6000 ft | 191 kts | 227° |
| 2026-04-26 20:01 | -27.31357 | -50.25020 | 6006 ft | 191 kts | 228° |
| 2026-04-26 20:01 | -27.32313 | -50.26056 | 6011 ft | 191 kts | 228° |
| 2026-04-26 20:01 | -27.33273 | -50.27095 | 6016 ft | 192 kts | 228° |
| 2026-04-26 20:01 | -27.34249 | -50.28153 | 6016 ft | 192 kts | 227° |
| 2026-04-26 20:02 | -27.35208 | -50.29193 | 6002 ft | 193 kts | 227° |
| 2026-04-26 20:02 | -27.36179 | -50.30245 | 6003 ft | 193 kts | 227° |
| 2026-04-26 20:02 | -27.37157 | -50.31306 | 6014 ft | 192 kts | 227° |
| 2026-04-26 20:02 | -27.37478 | -50.31654 | 6014 ft | 192 kts | 227° |
| 2026-04-26 20:03 | -27.39085 | -50.33397 | 6001 ft | 193 kts | 227° |
| 2026-04-26 20:03 | -27.40047 | -50.34441 | 5999 ft | 192 kts | 227° |
| 2026-04-26 20:03 | -27.41024 | -50.35502 | 6010 ft | 192 kts | 227° |
| 2026-04-26 20:03 | -27.41982 | -50.36541 | 6009 ft | 192 kts | 227° |
| 2026-04-26 20:04 | -27.42948 | -50.37590 | 6004 ft | 192 kts | 228° |
| 2026-04-26 20:04 | -27.43918 | -50.38644 | 6003 ft | 192 kts | 227° |
| 2026-04-26 20:04 | -27.44887 | -50.39697 | 6004 ft | 192 kts | 227° |
| 2026-04-26 20:04 | -27.45851 | -50.40744 | 6012 ft | 192 kts | 227° |
| 2026-04-26 20:05 | -27.46811 | -50.41789 | 6014 ft | 192 kts | 227° |
| 2026-04-26 20:05 | -27.47776 | -50.42838 | 6014 ft | 192 kts | 227° |
| 2026-04-26 20:05 | -27.48743 | -50.43890 | 6012 ft | 192 kts | 227° |
| 2026-04-26 20:05 | -27.49712 | -50.44944 | 6014 ft | 192 kts | 227° |
| 2026-04-26 20:06 | -27.50665 | -50.45982 | 6014 ft | 192 kts | 227° |
| 2026-04-26 20:06 | -27.51637 | -50.47038 | 6015 ft | 192 kts | 227° |
| 2026-04-26 20:06 | -27.52579 | -50.48064 | 6016 ft | 192 kts | 227° |
| 2026-04-26 20:06 | -27.53554 | -50.49127 | 6015 ft | 193 kts | 227° |
| 2026-04-26 20:07 | -27.54510 | -50.50168 | 6015 ft | 192 kts | 227° |
| 2026-04-26 20:07 | -27.55485 | -50.51230 | 6014 ft | 192 kts | 227° |
| 2026-04-26 20:07 | -27.56455 | -50.52289 | 6014 ft | 193 kts | 227° |
| 2026-04-26 20:07 | -27.57423 | -50.53342 | 6016 ft | 192 kts | 227° |
| 2026-04-26 20:08 | -27.58362 | -50.54367 | 6016 ft | 193 kts | 227° |
| 2026-04-26 20:08 | -27.59355 | -50.55450 | 6019 ft | 193 kts | 228° |
| 2026-04-26 20:08 | -27.60323 | -50.56506 | 6014 ft | 193 kts | 227° |
| 2026-04-26 20:08 | -27.61295 | -50.57568 | 6016 ft | 193 kts | 227° |
| 2026-04-26 20:09 | -27.62256 | -50.58616 | 6015 ft | 193 kts | 227° |
| 2026-04-26 20:09 | -27.63220 | -50.59669 | 6014 ft | 193 kts | 227° |
| 2026-04-26 20:09 | -27.64184 | -50.60721 | 6013 ft | 193 kts | 227° |
| 2026-04-26 20:09 | -27.65155 | -50.61783 | 6010 ft | 193 kts | 227° |
| 2026-04-26 20:10 | -27.66129 | -50.62847 | 6009 ft | 193 kts | 227° |
| 2026-04-26 20:10 | -27.67093 | -50.63900 | 6011 ft | 193 kts | 227° |
| 2026-04-26 20:10 | -27.68057 | -50.64954 | 6014 ft | 192 kts | 227° |
| 2026-04-26 20:10 | -27.68729 | -50.65689 | 6017 ft | 193 kts | 227° |
| 2026-04-26 20:11 | -27.69673 | -50.66721 | 6017 ft | 193 kts | 228° |
| 2026-04-26 20:11 | -27.70657 | -50.67798 | 6017 ft | 193 kts | 228° |
| 2026-04-26 20:11 | -27.71570 | -50.68798 | 6019 ft | 193 kts | 228° |
| 2026-04-26 20:12 | -27.73529 | -50.70944 | 6015 ft | 193 kts | 227° |
| 2026-04-26 20:12 | -27.74492 | -50.72001 | 6013 ft | 193 kts | 227° |
| 2026-04-26 20:12 | -27.75371 | -50.73130 | 6002 ft | 190 kts | 244° |
| 2026-04-26 20:12 | -27.75870 | -50.74517 | 6015 ft | 189 kts | 251° |
| 2026-04-26 20:13 | -27.76316 | -50.75919 | 6014 ft | 189 kts | 252° |
| 2026-04-26 20:13 | -27.76756 | -50.77311 | 6008 ft | 190 kts | 252° |
| 2026-04-26 20:13 | -27.77198 | -50.78714 | 6007 ft | 190 kts | 252° |
| 2026-04-26 20:13 | -27.77644 | -50.80136 | 6006 ft | 190 kts | 252° |
| 2026-04-26 20:14 | -27.78080 | -50.81525 | 6005 ft | 190 kts | 252° |
| 2026-04-26 20:14 | -27.78524 | -50.82946 | 6002 ft | 190 kts | 252° |
| 2026-04-26 20:14 | -27.78969 | -50.84367 | 6002 ft | 190 kts | 252° |
| 2026-04-26 20:14 | -27.79407 | -50.85773 | 6003 ft | 190 kts | 252° |
| 2026-04-26 20:15 | -27.79849 | -50.87187 | 6004 ft | 190 kts | 252° |
| 2026-04-26 20:15 | -27.80292 | -50.88609 | 6001 ft | 190 kts | 252° |
| 2026-04-26 20:15 | -27.80732 | -50.90018 | 5998 ft | 190 kts | 252° |
| 2026-04-26 20:15 | -27.81169 | -50.91421 | 6002 ft | 190 kts | 252° |
| 2026-04-26 20:16 | -27.81606 | -50.92823 | 6006 ft | 190 kts | 252° |
| 2026-04-26 20:16 | -27.82051 | -50.94251 | 6004 ft | 190 kts | 252° |
| 2026-04-26 20:16 | -27.82489 | -50.95659 | 6005 ft | 190 kts | 252° |
| 2026-04-26 20:16 | -27.82932 | -50.97086 | 6000 ft | 190 kts | 252° |
| 2026-04-26 20:17 | -27.83376 | -50.98511 | 6008 ft | 190 kts | 252° |
| 2026-04-26 20:17 | -27.83800 | -50.99878 | 6006 ft | 190 kts | 252° |
| 2026-04-26 20:17 | -27.84240 | -51.01292 | 6002 ft | 190 kts | 252° |
| 2026-04-26 20:17 | -27.84530 | -51.02227 | 6000 ft | 190 kts | 252° |
| 2026-04-26 20:18 | -27.85116 | -51.04114 | 5999 ft | 190 kts | 252° |
| 2026-04-26 20:18 | -27.85551 | -51.05516 | 6000 ft | 190 kts | 252° |
| 2026-04-26 20:18 | -27.85989 | -51.06929 | 5997 ft | 190 kts | 252° |
| 2026-04-26 20:18 | -27.86426 | -51.08337 | 5997 ft | 189 kts | 252° |
| 2026-04-26 20:19 | -27.86864 | -51.09751 | 5997 ft | 189 kts | 252° |
| 2026-04-26 20:19 | -27.87296 | -51.11145 | 5997 ft | 188 kts | 252° |
| 2026-04-26 20:19 | -27.87730 | -51.12561 | 6000 ft | 188 kts | 252° |
| 2026-04-26 20:19 | -27.88150 | -51.13947 | 6001 ft | 188 kts | 252° |
| 2026-04-26 20:20 | -27.88578 | -51.15361 | 6004 ft | 188 kts | 252° |
| 2026-04-26 20:20 | -27.89004 | -51.16771 | 6004 ft | 189 kts | 252° |
| 2026-04-26 20:20 | -27.89426 | -51.18169 | 6007 ft | 189 kts | 252° |
| 2026-04-26 20:20 | -27.89855 | -51.19596 | 6005 ft | 190 kts | 252° |
| 2026-04-26 20:21 | -27.90279 | -51.21002 | 6008 ft | 190 kts | 252° |
| 2026-04-26 20:21 | -27.90705 | -51.22412 | 6010 ft | 190 kts | 252° |
| 2026-04-26 20:21 | -27.91131 | -51.23827 | 6012 ft | 189 kts | 252° |
| 2026-04-26 20:21 | -27.91553 | -51.25232 | 6010 ft | 189 kts | 252° |
| 2026-04-26 20:22 | -27.91983 | -51.26660 | 6008 ft | 189 kts | 252° |
| 2026-04-26 20:22 | -27.92408 | -51.28077 | 6007 ft | 189 kts | 252° |
| 2026-04-26 20:22 | -27.92833 | -51.29495 | 6008 ft | 189 kts | 252° |
| 2026-04-26 20:22 | -27.93256 | -51.30906 | 6009 ft | 189 kts | 252° |
| 2026-04-26 20:23 | -27.93680 | -51.32322 | 6008 ft | 189 kts | 252° |
| 2026-04-26 20:23 | -27.94102 | -51.33728 | 6008 ft | 189 kts | 252° |
| 2026-04-26 20:23 | -27.94522 | -51.35132 | 6008 ft | 189 kts | 252° |
| 2026-04-26 20:23 | -27.94947 | -51.36550 | 6006 ft | 189 kts | 252° |
| 2026-04-26 20:24 | -27.95372 | -51.37973 | 6005 ft | 189 kts | 252° |
| 2026-04-26 20:24 | -27.95799 | -51.39400 | 6007 ft | 189 kts | 252° |
| 2026-04-26 20:24 | -27.96222 | -51.40813 | 6005 ft | 189 kts | 252° |
| 2026-04-26 20:24 | -27.96648 | -51.42242 | 6002 ft | 189 kts | 252° |
| 2026-04-26 20:25 | -27.97075 | -51.43670 | 6000 ft | 190 kts | 252° |
| 2026-04-26 20:25 | -27.97213 | -51.44135 | 6001 ft | 190 kts | 252° |
| 2026-04-26 20:25 | -27.97915 | -51.46487 | 6004 ft | 189 kts | 252° |
| 2026-04-26 20:25 | -27.98336 | -51.47896 | 6002 ft | 190 kts | 252° |
| 2026-04-26 20:26 | -27.98760 | -51.49321 | 5999 ft | 190 kts | 252° |
| 2026-04-26 20:26 | -27.99181 | -51.50732 | 5998 ft | 190 kts | 252° |
| 2026-04-26 20:26 | -27.99605 | -51.52155 | 5998 ft | 190 kts | 252° |
| 2026-04-26 20:26 | -28.00031 | -51.53584 | 5994 ft | 190 kts | 252° |
| 2026-04-26 20:27 | -28.00454 | -51.55007 | 5994 ft | 190 kts | 252° |
| 2026-04-26 20:27 | -28.00874 | -51.56416 | 5994 ft | 190 kts | 252° |
| 2026-04-26 20:27 | -28.01295 | -51.57833 | 5994 ft | 189 kts | 252° |
| 2026-04-26 20:27 | -28.01721 | -51.59265 | 5993 ft | 189 kts | 252° |
| 2026-04-26 20:28 | -28.02141 | -51.60680 | 5991 ft | 189 kts | 252° |
| 2026-04-26 20:28 | -28.02558 | -51.62083 | 5989 ft | 190 kts | 252° |
| 2026-04-26 20:28 | -28.02982 | -51.63512 | 5988 ft | 190 kts | 252° |
| 2026-04-26 20:28 | -28.03402 | -51.64927 | 5986 ft | 190 kts | 252° |
| 2026-04-26 20:29 | -28.03827 | -51.66359 | 5989 ft | 190 kts | 252° |
| 2026-04-26 20:29 | -28.04237 | -51.67740 | 5992 ft | 190 kts | 252° |
| 2026-04-26 20:29 | -28.04658 | -51.69164 | 5989 ft | 191 kts | 252° |
| 2026-04-26 20:29 | -28.05081 | -51.70590 | 5988 ft | 191 kts | 252° |
| 2026-04-26 20:30 | -28.05505 | -51.72022 | 5985 ft | 191 kts | 252° |
| 2026-04-26 20:30 | -28.05929 | -51.73455 | 5989 ft | 191 kts | 252° |
| 2026-04-26 20:30 | -28.06355 | -51.74892 | 5987 ft | 191 kts | 252° |
| 2026-04-26 20:30 | -28.06776 | -51.76318 | 5985 ft | 191 kts | 252° |
| 2026-04-26 20:31 | -28.07200 | -51.77753 | 5986 ft | 191 kts | 252° |
| 2026-04-26 20:31 | -28.07628 | -51.79200 | 5983 ft | 191 kts | 252° |
| 2026-04-26 20:31 | -28.08047 | -51.80621 | 5987 ft | 190 kts | 252° |
| 2026-04-26 20:31 | -28.08468 | -51.82051 | 5987 ft | 190 kts | 252° |
| 2026-04-26 20:32 | -28.08889 | -51.83487 | 5986 ft | 190 kts | 252° |
| 2026-04-26 20:32 | -28.09305 | -51.84900 | 5984 ft | 191 kts | 252° |
| 2026-04-26 20:32 | -28.09731 | -51.86348 | 5984 ft | 191 kts | 252° |
| 2026-04-26 20:32 | -28.10143 | -51.87746 | 5983 ft | 191 kts | 252° |
| 2026-04-26 20:33 | -28.10574 | -51.89210 | 5981 ft | 191 kts | 252° |
| 2026-04-26 20:33 | -28.10997 | -51.90646 | 5981 ft | 190 kts | 252° |
| 2026-04-26 20:33 | -28.11411 | -51.92052 | 5978 ft | 191 kts | 252° |
| 2026-04-26 20:33 | -28.11650 | -51.92864 | 5979 ft | 191 kts | 252° |
| 2026-04-26 20:34 | -28.12035 | -51.94171 | 5980 ft | 192 kts | 252° |
| 2026-04-26 20:34 | -28.12462 | -51.95623 | 5981 ft | 192 kts | 252° |
| 2026-04-26 20:34 | -28.12887 | -51.97070 | 5981 ft | 192 kts | 252° |
| 2026-04-26 20:34 | -28.13297 | -51.98466 | 5979 ft | 192 kts | 252° |
| 2026-04-26 20:35 | -28.13725 | -51.99921 | 5977 ft | 192 kts | 252° |
| 2026-04-26 20:35 | -28.14148 | -52.01366 | 5941 ft | 194 kts | 252° |
| 2026-04-26 20:35 | -28.14584 | -52.02849 | 5810 ft | 199 kts | 252° |
| 2026-04-26 20:35 | -28.15030 | -52.04372 | 5657 ft | 203 kts | 252° |
| 2026-04-26 20:36 | -28.15476 | -52.05891 | 5503 ft | 201 kts | 252° |
| 2026-04-26 20:36 | -28.15919 | -52.07406 | 5342 ft | 199 kts | 252° |
| 2026-04-26 20:36 | -28.16356 | -52.08898 | 5177 ft | 198 kts | 252° |
| 2026-04-26 20:36 | -28.16791 | -52.10386 | 5014 ft | 197 kts | 251° |
| 2026-04-26 20:37 | -28.17222 | -52.11859 | 4848 ft | 196 kts | 251° |
| 2026-04-26 20:37 | -28.17654 | -52.13335 | 4685 ft | 196 kts | 251° |
| 2026-04-26 20:37 | -28.18152 | -52.14764 | 4517 ft | 196 kts | 237° |
| 2026-04-26 20:37 | -28.18800 | -52.16110 | 4341 ft | 196 kts | 252° |
| 2026-04-26 20:38 | -28.19188 | -52.17595 | 4178 ft | 196 kts | 251° |
| 2026-04-26 20:38 | -28.19637 | -52.19049 | 4018 ft | 197 kts | 249° |
| 2026-04-26 20:38 | -28.20125 | -52.20507 | 3942 ft | 193 kts | 248° |
| 2026-04-26 20:38 | -28.20600 | -52.21890 | 3984 ft | 186 kts | 247° |
| 2026-04-26 20:39 | -28.21071 | -52.23254 | 3999 ft | 183 kts | 247° |
| 2026-04-26 20:39 | -28.21388 | -52.24162 | 3930 ft | 186 kts | 247° |
| 2026-04-26 20:39 | -28.21997 | -52.25899 | 3691 ft | 183 kts | 246° |
| 2026-04-26 20:39 | -28.22465 | -52.27237 | 3483 ft | 176 kts | 246° |
| 2026-04-26 20:40 | -28.22889 | -52.28455 | 3240 ft | 159 kts | 246° |
| 2026-04-26 20:40 | -28.23255 | -52.29509 | 3079 ft | 124 kts | 245° |
| 2026-04-26 20:40 | -28.23520 | -52.30355 | 2760 ft | 102 kts | 250° |
| 2026-04-26 20:40 | -28.23766 | -52.31071 | 2634 ft | 102 kts | 240° |
| 2026-04-26 20:41 | -28.24064 | -52.31820 | 2490 ft | 106 kts | 245° |
| 2026-04-26 20:41 | -28.24327 | -52.32569 | 2396 ft | 84 kts | 245° |
| 2026-04-26 20:41 | -28.24535 | -52.33148 | 2387 ft | 67 kts | 241° |
| 2026-04-26 20:41 | -28.24620 | -52.33384 | 2382 ft | 21 kts | 250° |
| 2026-04-26 20:42 | -28.24659 | -52.33517 | 2380 ft | 14 kts | 245° |
| 2026-04-26 20:42 | -28.24710 | -52.33606 | 2380 ft | 13 kts | 264° |
| 2026-04-26 20:42 | -28.24667 | -52.33541 | 2380 ft | 17 kts | 68° |
| 2026-04-26 20:42 | -28.24614 | -52.33396 | 2382 ft | 21 kts | 69° |
| 2026-04-26 20:43 | -28.24554 | -52.33225 | 2385 ft | 24 kts | 70° |
| 2026-04-26 20:43 | -28.24491 | -52.33042 | 2389 ft | 25 kts | 69° |
| 2026-04-26 20:43 | -28.24448 | -52.32927 | 2392 ft | 10 kts | 62° |
| 2026-04-26 20:43 | -28.24375 | -52.32924 | 2393 ft | 12 kts | 340° |
| 2026-04-26 20:44 | -28.24327 | -52.32942 | 2396 ft | 7 kts | 1° |
| 2026-04-26 20:44 | -28.24301 | -52.32930 | 2396 ft | 0 kts | 23° |